sensor_id;sensor_type;location;lat;lon;timestamp;P1;durP1;ratioP1;P2;durP2;ratioP2
51122;SDS011;37162;41.724;13.346;2023-05-07T00:00:35;3.17;;;2.55;;
51122;SDS011;37162;41.724;13.346;2023-05-07T00:03:00;2.30;;;2.10;;
51122;SDS011;37162;41.724;13.346;2023-05-07T00:05:26;2.38;;;2.17;;
51122;SDS011;37162;41.724;13.346;2023-05-07T00:07:51;2.95;;;2.35;;
51122;SDS011;37162;41.724;13.346;2023-05-07T00:10:20;2.50;;;2.30;;
51122;SDS011;37162;41.724;13.346;2023-05-07T00:12:45;2.28;;;2.10;;
51122;SDS011;37162;41.724;13.346;2023-05-07T00:15:11;2.30;;;2.10;;
51122;SDS011;37162;41.724;13.346;2023-05-07T00:17:36;2.75;;;2.28;;
51122;SDS011;37162;41.724;13.346;2023-05-07T00:20:02;2.33;;;2.03;;
51122;SDS011;37162;41.724;13.346;2023-05-07T00:22:30;2.25;;;2.05;;
51122;SDS011;37162;41.724;13.346;2023-05-07T00:24:56;3.35;;;2.55;;
51122;SDS011;37162;41.724;13.346;2023-05-07T00:27:21;2.85;;;2.22;;
51122;SDS011;37162;41.724;13.346;2023-05-07T00:29:47;2.80;;;2.55;;
51122;SDS011;37162;41.724;13.346;2023-05-07T00:32:13;2.63;;;2.38;;
51122;SDS011;37162;41.724;13.346;2023-05-07T00:34:38;2.63;;;1.92;;
51122;SDS011;37162;41.724;13.346;2023-05-07T00:37:04;3.58;;;2.53;;
51122;SDS011;37162;41.724;13.346;2023-05-07T00:39:32;2.40;;;2.20;;
51122;SDS011;37162;41.724;13.346;2023-05-07T00:41:58;2.17;;;1.98;;
51122;SDS011;37162;41.724;13.346;2023-05-07T00:44:23;3.80;;;3.00;;
51122;SDS011;37162;41.724;13.346;2023-05-07T00:46:49;2.83;;;2.45;;
51122;SDS011;37162;41.724;13.346;2023-05-07T00:49:15;2.50;;;2.20;;
51122;SDS011;37162;41.724;13.346;2023-05-07T00:51:40;2.88;;;2.25;;
51122;SDS011;37162;41.724;13.346;2023-05-07T00:54:06;2.15;;;1.95;;
51122;SDS011;37162;41.724;13.346;2023-05-07T00:56:33;2.88;;;2.42;;
51122;SDS011;37162;41.724;13.346;2023-05-07T00:59:00;3.25;;;2.67;;
51122;SDS011;37162;41.724;13.346;2023-05-07T01:01:26;3.45;;;3.10;;
51122;SDS011;37162;41.724;13.346;2023-05-07T01:03:52;3.22;;;2.40;;
51122;SDS011;37162;41.724;13.346;2023-05-07T01:06:18;3.45;;;1.95;;
51122;SDS011;37162;41.724;13.346;2023-05-07T01:08:46;2.25;;;2.05;;
51122;SDS011;37162;41.724;13.346;2023-05-07T01:11:12;3.03;;;2.03;;
51122;SDS011;37162;41.724;13.346;2023-05-07T01:13:38;3.00;;;2.30;;
51122;SDS011;37162;41.724;13.346;2023-05-07T01:16:05;3.00;;;2.70;;
51122;SDS011;37162;41.724;13.346;2023-05-07T01:18:31;3.25;;;2.90;;
51122;SDS011;37162;41.724;13.346;2023-05-07T01:20:58;3.90;;;3.28;;
51122;SDS011;37162;41.724;13.346;2023-05-07T01:23:24;4.35;;;3.22;;
51122;SDS011;37162;41.724;13.346;2023-05-07T01:25:54;3.28;;;2.83;;
51122;SDS011;37162;41.724;13.346;2023-05-07T01:28:19;4.55;;;2.78;;
51122;SDS011;37162;41.724;13.346;2023-05-07T01:30:54;3.95;;;3.00;;
51122;SDS011;37162;41.724;13.346;2023-05-07T01:33:22;3.42;;;2.92;;
51122;SDS011;37162;41.724;13.346;2023-05-07T01:35:50;3.20;;;2.90;;
51122;SDS011;37162;41.724;13.346;2023-05-07T01:38:18;3.20;;;2.70;;
51122;SDS011;37162;41.724;13.346;2023-05-07T01:40:44;3.78;;;2.30;;
51122;SDS011;37162;41.724;13.346;2023-05-07T01:43:10;2.40;;;2.08;;
51122;SDS011;37162;41.724;13.346;2023-05-07T01:45:36;3.55;;;2.40;;
51122;SDS011;37162;41.724;13.346;2023-05-07T01:48:02;2.30;;;2.10;;
51122;SDS011;37162;41.724;13.346;2023-05-07T01:50:29;1.83;;;1.65;;
51122;SDS011;37162;41.724;13.346;2023-05-07T01:52:55;2.60;;;2.00;;
51122;SDS011;37162;41.724;13.346;2023-05-07T01:55:21;2.13;;;1.90;;
51122;SDS011;37162;41.724;13.346;2023-05-07T01:57:46;1.98;;;1.77;;
51122;SDS011;37162;41.724;13.346;2023-05-07T02:00:12;2.20;;;2.00;;
51122;SDS011;37162;41.724;13.346;2023-05-07T02:02:37;2.30;;;2.10;;
51122;SDS011;37162;41.724;13.346;2023-05-07T02:05:03;1.95;;;1.85;;
51122;SDS011;37162;41.724;13.346;2023-05-07T02:07:29;2.03;;;1.77;;
51122;SDS011;37162;41.724;13.346;2023-05-07T02:09:54;3.50;;;2.28;;
51122;SDS011;37162;41.724;13.346;2023-05-07T02:12:20;2.38;;;2.17;;
51122;SDS011;37162;41.724;13.346;2023-05-07T02:14:46;2.70;;;2.15;;
51122;SDS011;37162;41.724;13.346;2023-05-07T02:17:12;2.75;;;2.45;;
51122;SDS011;37162;41.724;13.346;2023-05-07T02:19:37;2.53;;;2.33;;
51122;SDS011;37162;41.724;13.346;2023-05-07T02:22:02;2.25;;;1.98;;
51122;SDS011;37162;41.724;13.346;2023-05-07T02:24:28;2.22;;;1.90;;
51122;SDS011;37162;41.724;13.346;2023-05-07T02:26:53;1.88;;;1.58;;
51122;SDS011;37162;41.724;13.346;2023-05-07T02:29:19;1.60;;;1.50;;
51122;SDS011;37162;41.724;13.346;2023-05-07T02:31:44;2.30;;;2.10;;
51122;SDS011;37162;41.724;13.346;2023-05-07T02:34:10;2.22;;;2.03;;
51122;SDS011;37162;41.724;13.346;2023-05-07T02:36:35;2.53;;;2.33;;
51122;SDS011;37162;41.724;13.346;2023-05-07T02:39:01;1.73;;;1.63;;
51122;SDS011;37162;41.724;13.346;2023-05-07T02:41:27;2.00;;;1.90;;
51122;SDS011;37162;41.724;13.346;2023-05-07T02:43:53;1.80;;;1.70;;
51122;SDS011;37162;41.724;13.346;2023-05-07T02:46:18;2.78;;;1.77;;
51122;SDS011;37162;41.724;13.346;2023-05-07T02:48:44;2.38;;;1.83;;
51122;SDS011;37162;41.724;13.346;2023-05-07T02:51:09;2.15;;;1.95;;
51122;SDS011;37162;41.724;13.346;2023-05-07T02:53:35;1.92;;;1.80;;
51122;SDS011;37162;41.724;13.346;2023-05-07T02:56:00;2.38;;;2.00;;
51122;SDS011;37162;41.724;13.346;2023-05-07T02:58:26;2.42;;;2.20;;
51122;SDS011;37162;41.724;13.346;2023-05-07T03:00:52;2.05;;;1.75;;
51122;SDS011;37162;41.724;13.346;2023-05-07T03:03:19;2.53;;;2.33;;
51122;SDS011;37162;41.724;13.346;2023-05-07T03:05:45;2.30;;;2.10;;
51122;SDS011;37162;41.724;13.346;2023-05-07T03:08:10;2.20;;;2.00;;
51122;SDS011;37162;41.724;13.346;2023-05-07T03:10:36;3.45;;;1.70;;
51122;SDS011;37162;41.724;13.346;2023-05-07T03:13:02;2.28;;;2.08;;
51122;SDS011;37162;41.724;13.346;2023-05-07T03:15:28;2.58;;;1.98;;
51122;SDS011;37162;41.724;13.346;2023-05-07T03:17:54;3.00;;;1.80;;
51122;SDS011;37162;41.724;13.346;2023-05-07T03:20:19;2.42;;;1.80;;
51122;SDS011;37162;41.724;13.346;2023-05-07T03:22:45;1.88;;;1.73;;
51122;SDS011;37162;41.724;13.346;2023-05-07T03:25:10;2.40;;;2.20;;
51122;SDS011;37162;41.724;13.346;2023-05-07T03:27:36;1.63;;;1.52;;
51122;SDS011;37162;41.724;13.346;2023-05-07T03:30:02;1.90;;;1.70;;
51122;SDS011;37162;41.724;13.346;2023-05-07T03:32:27;2.20;;;1.92;;
51122;SDS011;37162;41.724;13.346;2023-05-07T03:34:53;2.70;;;1.75;;
51122;SDS011;37162;41.724;13.346;2023-05-07T03:37:18;2.45;;;1.80;;
51122;SDS011;37162;41.724;13.346;2023-05-07T03:39:44;2.38;;;1.77;;
51122;SDS011;37162;41.724;13.346;2023-05-07T03:42:09;2.13;;;1.92;;
51122;SDS011;37162;41.724;13.346;2023-05-07T03:44:35;2.20;;;1.98;;
51122;SDS011;37162;41.724;13.346;2023-05-07T03:47:01;2.35;;;2.10;;
51122;SDS011;37162;41.724;13.346;2023-05-07T03:49:27;2.85;;;2.08;;
51122;SDS011;37162;41.724;13.346;2023-05-07T03:51:52;3.15;;;2.15;;
51122;SDS011;37162;41.724;13.346;2023-05-07T03:54:18;2.85;;;2.25;;
51122;SDS011;37162;41.724;13.346;2023-05-07T03:56:43;3.38;;;2.53;;
51122;SDS011;37162;41.724;13.346;2023-05-07T03:59:09;3.38;;;2.85;;
51122;SDS011;37162;41.724;13.346;2023-05-07T04:01:34;3.08;;;2.22;;
51122;SDS011;37162;41.724;13.346;2023-05-07T04:04:00;1.92;;;1.83;;
51122;SDS011;37162;41.724;13.346;2023-05-07T04:06:25;3.05;;;2.33;;
51122;SDS011;37162;41.724;13.346;2023-05-07T04:08:50;2.28;;;1.90;;
51122;SDS011;37162;41.724;13.346;2023-05-07T04:11:16;2.40;;;2.20;;
51122;SDS011;37162;41.724;13.346;2023-05-07T04:13:41;3.25;;;2.42;;
51122;SDS011;37162;41.724;13.346;2023-05-07T04:16:07;3.08;;;1.90;;
51122;SDS011;37162;41.724;13.346;2023-05-07T04:18:32;1.63;;;1.52;;
51122;SDS011;37162;41.724;13.346;2023-05-07T04:20:58;1.90;;;1.73;;
51122;SDS011;37162;41.724;13.346;2023-05-07T04:23:23;1.88;;;1.77;;
51122;SDS011;37162;41.724;13.346;2023-05-07T04:25:49;2.17;;;1.88;;
51122;SDS011;37162;41.724;13.346;2023-05-07T04:28:15;2.17;;;1.92;;
51122;SDS011;37162;41.724;13.346;2023-05-07T04:30:41;1.45;;;1.35;;
51122;SDS011;37162;41.724;13.346;2023-05-07T04:33:06;1.80;;;1.70;;
51122;SDS011;37162;41.724;13.346;2023-05-07T04:35:32;1.90;;;1.70;;
51122;SDS011;37162;41.724;13.346;2023-05-07T04:37:57;2.33;;;1.70;;
51122;SDS011;37162;41.724;13.346;2023-05-07T04:40:23;4.03;;;1.80;;
51122;SDS011;37162;41.724;13.346;2023-05-07T04:42:48;2.13;;;1.80;;
51122;SDS011;37162;41.724;13.346;2023-05-07T04:45:14;2.30;;;1.75;;
51122;SDS011;37162;41.724;13.346;2023-05-07T04:47:40;1.70;;;1.40;;
51122;SDS011;37162;41.724;13.346;2023-05-07T04:50:08;2.20;;;2.00;;
51122;SDS011;37162;41.724;13.346;2023-05-07T04:52:34;1.58;;;1.45;;
51122;SDS011;37162;41.724;13.346;2023-05-07T04:55:00;2.38;;;2.17;;
51122;SDS011;37162;41.724;13.346;2023-05-07T04:57:26;2.42;;;1.92;;
51122;SDS011;37162;41.724;13.346;2023-05-07T04:59:52;3.58;;;2.47;;
51122;SDS011;37162;41.724;13.346;2023-05-07T05:02:18;3.00;;;2.70;;
51122;SDS011;37162;41.724;13.346;2023-05-07T05:04:43;2.95;;;2.38;;
51122;SDS011;37162;41.724;13.346;2023-05-07T05:07:09;3.03;;;2.72;;
51122;SDS011;37162;41.724;13.346;2023-05-07T05:09:34;4.28;;;3.42;;
51122;SDS011;37162;41.724;13.346;2023-05-07T05:12:00;3.75;;;3.33;;
51122;SDS011;37162;41.724;13.346;2023-05-07T05:14:25;3.70;;;3.17;;
51122;SDS011;37162;41.724;13.346;2023-05-07T05:16:50;3.67;;;2.80;;
51122;SDS011;37162;41.724;13.346;2023-05-07T05:19:16;3.30;;;3.00;;
51122;SDS011;37162;41.724;13.346;2023-05-07T05:21:41;3.55;;;3.17;;
51122;SDS011;37162;41.724;13.346;2023-05-07T05:24:07;3.05;;;2.75;;
51122;SDS011;37162;41.724;13.346;2023-05-07T05:26:32;3.95;;;3.35;;
51122;SDS011;37162;41.724;13.346;2023-05-07T05:28:59;4.43;;;3.05;;
51122;SDS011;37162;41.724;13.346;2023-05-07T05:31:24;3.70;;;3.35;;
51122;SDS011;37162;41.724;13.346;2023-05-07T05:33:50;5.32;;;3.72;;
51122;SDS011;37162;41.724;13.346;2023-05-07T05:36:16;3.55;;;2.97;;
51122;SDS011;37162;41.724;13.346;2023-05-07T05:38:41;3.88;;;3.50;;
51122;SDS011;37162;41.724;13.346;2023-05-07T05:41:07;4.10;;;3.03;;
51122;SDS011;37162;41.724;13.346;2023-05-07T05:43:32;6.63;;;4.03;;
51122;SDS011;37162;41.724;13.346;2023-05-07T05:45:57;6.70;;;3.90;;
51122;SDS011;37162;41.724;13.346;2023-05-07T05:48:23;6.25;;;4.07;;
51122;SDS011;37162;41.724;13.346;2023-05-07T05:50:49;4.25;;;3.85;;
51122;SDS011;37162;41.724;13.346;2023-05-07T05:53:14;3.95;;;3.40;;
51122;SDS011;37162;41.724;13.346;2023-05-07T05:55:41;4.15;;;3.40;;
51122;SDS011;37162;41.724;13.346;2023-05-07T05:58:06;3.35;;;3.00;;
51122;SDS011;37162;41.724;13.346;2023-05-07T06:00:32;3.22;;;2.92;;
51122;SDS011;37162;41.724;13.346;2023-05-07T06:02:58;5.22;;;3.25;;
51122;SDS011;37162;41.724;13.346;2023-05-07T06:05:23;5.57;;;3.80;;
51122;SDS011;37162;41.724;13.346;2023-05-07T06:07:49;7.35;;;3.67;;
51122;SDS011;37162;41.724;13.346;2023-05-07T06:10:14;4.72;;;3.80;;
51122;SDS011;37162;41.724;13.346;2023-05-07T06:12:39;7.20;;;3.90;;
51122;SDS011;37162;41.724;13.346;2023-05-07T06:15:05;6.20;;;3.10;;
51122;SDS011;37162;41.724;13.346;2023-05-07T06:17:31;5.30;;;3.00;;
51122;SDS011;37162;41.724;13.346;2023-05-07T06:19:56;3.00;;;2.70;;
51122;SDS011;37162;41.724;13.346;2023-05-07T06:22:22;2.83;;;2.45;;
51122;SDS011;37162;41.724;13.346;2023-05-07T06:24:47;2.63;;;2.42;;
51122;SDS011;37162;41.724;13.346;2023-05-07T06:27:13;3.38;;;2.67;;
51122;SDS011;37162;41.724;13.346;2023-05-07T06:29:38;3.08;;;2.78;;
51122;SDS011;37162;41.724;13.346;2023-05-07T06:32:07;2.60;;;2.40;;
51122;SDS011;37162;41.724;13.346;2023-05-07T06:34:33;3.28;;;2.40;;
51122;SDS011;37162;41.724;13.346;2023-05-07T06:36:58;3.35;;;2.50;;
51122;SDS011;37162;41.724;13.346;2023-05-07T06:39:24;2.92;;;2.63;;
51122;SDS011;37162;41.724;13.346;2023-05-07T06:41:49;5.85;;;4.15;;
51122;SDS011;37162;41.724;13.346;2023-05-07T06:44:15;5.18;;;4.68;;
51122;SDS011;37162;41.724;13.346;2023-05-07T06:46:40;8.15;;;4.97;;
51122;SDS011;37162;41.724;13.346;2023-05-07T06:49:06;14.38;;;4.63;;
51122;SDS011;37162;41.724;13.346;2023-05-07T06:51:31;11.30;;;3.42;;
51122;SDS011;37162;41.724;13.346;2023-05-07T06:53:57;13.98;;;3.72;;
51122;SDS011;37162;41.724;13.346;2023-05-07T06:56:22;7.35;;;3.42;;
51122;SDS011;37162;41.724;13.346;2023-05-07T06:58:48;13.65;;;3.47;;
51122;SDS011;37162;41.724;13.346;2023-05-07T07:01:13;7.82;;;2.60;;
51122;SDS011;37162;41.724;13.346;2023-05-07T07:03:40;6.93;;;3.33;;
51122;SDS011;37162;41.724;13.346;2023-05-07T07:06:05;5.22;;;3.10;;
51122;SDS011;37162;41.724;13.346;2023-05-07T07:08:31;3.10;;;2.67;;
51122;SDS011;37162;41.724;13.346;2023-05-07T07:10:57;5.32;;;2.80;;
51122;SDS011;37162;41.724;13.346;2023-05-07T07:13:22;3.80;;;2.70;;
51122;SDS011;37162;41.724;13.346;2023-05-07T07:15:47;5.45;;;3.10;;
51122;SDS011;37162;41.724;13.346;2023-05-07T07:18:13;3.47;;;2.88;;
51122;SDS011;37162;41.724;13.346;2023-05-07T07:20:38;3.83;;;2.75;;
51122;SDS011;37162;41.724;13.346;2023-05-07T07:23:04;5.72;;;3.00;;
51122;SDS011;37162;41.724;13.346;2023-05-07T07:25:30;6.57;;;2.97;;
51122;SDS011;37162;41.724;13.346;2023-05-07T07:27:55;4.55;;;2.92;;
51122;SDS011;37162;41.724;13.346;2023-05-07T07:30:20;5.55;;;2.80;;
51122;SDS011;37162;41.724;13.346;2023-05-07T07:32:46;3.47;;;2.90;;
51122;SDS011;37162;41.724;13.346;2023-05-07T07:35:11;6.05;;;3.10;;
51122;SDS011;37162;41.724;13.346;2023-05-07T07:37:37;3.83;;;2.75;;
51122;SDS011;37162;41.724;13.346;2023-05-07T07:40:02;3.88;;;2.67;;
51122;SDS011;37162;41.724;13.346;2023-05-07T07:42:28;4.45;;;3.35;;
51122;SDS011;37162;41.724;13.346;2023-05-07T07:44:54;6.00;;;3.20;;
51122;SDS011;37162;41.724;13.346;2023-05-07T07:47:20;4.15;;;3.42;;
51122;SDS011;37162;41.724;13.346;2023-05-07T07:49:45;4.40;;;3.20;;
51122;SDS011;37162;41.724;13.346;2023-05-07T07:52:11;3.83;;;3.10;;
51122;SDS011;37162;41.724;13.346;2023-05-07T07:54:36;3.88;;;3.15;;
51122;SDS011;37162;41.724;13.346;2023-05-07T07:57:02;4.30;;;2.97;;
51122;SDS011;37162;41.724;13.346;2023-05-07T07:59:27;3.13;;;2.70;;
51122;SDS011;37162;41.724;13.346;2023-05-07T08:01:52;4.15;;;2.90;;
51122;SDS011;37162;41.724;13.346;2023-05-07T08:04:20;4.25;;;3.40;;
51122;SDS011;37162;41.724;13.346;2023-05-07T08:06:46;4.28;;;3.03;;
51122;SDS011;37162;41.724;13.346;2023-05-07T08:09:12;3.22;;;2.92;;
51122;SDS011;37162;41.724;13.346;2023-05-07T08:11:38;3.40;;;3.10;;
51122;SDS011;37162;41.724;13.346;2023-05-07T08:14:03;3.05;;;2.75;;
51122;SDS011;37162;41.724;13.346;2023-05-07T08:16:29;4.57;;;3.28;;
51122;SDS011;37162;41.724;13.346;2023-05-07T08:18:54;3.50;;;2.75;;
51122;SDS011;37162;41.724;13.346;2023-05-07T08:21:20;5.10;;;3.83;;
51122;SDS011;37162;41.724;13.346;2023-05-07T08:23:45;3.55;;;2.75;;
51122;SDS011;37162;41.724;13.346;2023-05-07T08:26:11;3.80;;;3.00;;
51122;SDS011;37162;41.724;13.346;2023-05-07T08:28:36;4.07;;;3.08;;
51122;SDS011;37162;41.724;13.346;2023-05-07T08:31:02;4.03;;;2.80;;
51122;SDS011;37162;41.724;13.346;2023-05-07T08:33:27;3.55;;;2.70;;
51122;SDS011;37162;41.724;13.346;2023-05-07T08:35:53;3.55;;;3.22;;
51122;SDS011;37162;41.724;13.346;2023-05-07T08:38:18;4.55;;;2.90;;
51122;SDS011;37162;41.724;13.346;2023-05-07T08:40:45;6.65;;;2.80;;
51122;SDS011;37162;41.724;13.346;2023-05-07T08:43:12;4.50;;;3.33;;
51122;SDS011;37162;41.724;13.346;2023-05-07T08:45:39;3.08;;;2.78;;
51122;SDS011;37162;41.724;13.346;2023-05-07T08:48:08;3.05;;;2.60;;
51122;SDS011;37162;41.724;13.346;2023-05-07T08:50:39;4.57;;;3.05;;
51122;SDS011;37162;41.724;13.346;2023-05-07T08:53:04;5.00;;;3.00;;
51122;SDS011;37162;41.724;13.346;2023-05-07T08:55:30;3.83;;;3.25;;
51122;SDS011;37162;41.724;13.346;2023-05-07T08:57:56;4.50;;;3.38;;
51122;SDS011;37162;41.724;13.346;2023-05-07T09:00:21;4.18;;;3.72;;
51122;SDS011;37162;41.724;13.346;2023-05-07T09:02:47;4.72;;;3.70;;
51122;SDS011;37162;41.724;13.346;2023-05-07T09:05:12;4.15;;;3.38;;
51122;SDS011;37162;41.724;13.346;2023-05-07T09:07:38;4.80;;;3.35;;
51122;SDS011;37162;41.724;13.346;2023-05-07T09:10:04;6.60;;;3.70;;
51122;SDS011;37162;41.724;13.346;2023-05-07T09:12:30;4.25;;;3.15;;
51122;SDS011;37162;41.724;13.346;2023-05-07T09:14:55;4.05;;;3.50;;
51122;SDS011;37162;41.724;13.346;2023-05-07T09:17:21;3.90;;;3.50;;
51122;SDS011;37162;41.724;13.346;2023-05-07T09:19:46;3.75;;;3.17;;
51122;SDS011;37162;41.724;13.346;2023-05-07T09:22:12;7.55;;;3.90;;
51122;SDS011;37162;41.724;13.346;2023-05-07T09:24:38;4.13;;;3.65;;
51122;SDS011;37162;41.724;13.346;2023-05-07T09:27:04;4.55;;;3.67;;
51122;SDS011;37162;41.724;13.346;2023-05-07T09:29:30;6.55;;;3.70;;
51122;SDS011;37162;41.724;13.346;2023-05-07T09:32:00;3.22;;;2.90;;
51122;SDS011;37162;41.724;13.346;2023-05-07T09:34:33;5.53;;;3.42;;
51122;SDS011;37162;41.724;13.346;2023-05-07T09:36:59;3.67;;;3.35;;
51122;SDS011;37162;41.724;13.346;2023-05-07T09:39:26;4.38;;;3.20;;
51122;SDS011;37162;41.724;13.346;2023-05-07T09:41:51;5.05;;;3.75;;
51122;SDS011;37162;41.724;13.346;2023-05-07T09:44:20;4.35;;;3.30;;
51122;SDS011;37162;41.724;13.346;2023-05-07T09:46:46;8.23;;;4.13;;
51122;SDS011;37162;41.724;13.346;2023-05-07T09:49:20;4.32;;;3.40;;
51122;SDS011;37162;41.724;13.346;2023-05-07T09:51:48;3.83;;;3.13;;
51122;SDS011;37162;41.724;13.346;2023-05-07T09:54:15;3.58;;;3.03;;
51122;SDS011;37162;41.724;13.346;2023-05-07T09:56:40;3.95;;;3.13;;
51122;SDS011;37162;41.724;13.346;2023-05-07T09:59:08;5.82;;;3.58;;
51122;SDS011;37162;41.724;13.346;2023-05-07T10:01:37;3.47;;;2.95;;
51122;SDS011;37162;41.724;13.346;2023-05-07T10:04:05;3.85;;;3.20;;
51122;SDS011;37162;41.724;13.346;2023-05-07T10:06:33;4.13;;;3.35;;
51122;SDS011;37162;41.724;13.346;2023-05-07T10:08:59;3.60;;;2.88;;
51122;SDS011;37162;41.724;13.346;2023-05-07T10:11:25;3.95;;;3.55;;
51122;SDS011;37162;41.724;13.346;2023-05-07T10:13:52;5.80;;;3.17;;
51122;SDS011;37162;41.724;13.346;2023-05-07T10:16:17;4.43;;;3.00;;
51122;SDS011;37162;41.724;13.346;2023-05-07T10:18:43;4.07;;;3.35;;
51122;SDS011;37162;41.724;13.346;2023-05-07T10:21:11;4.75;;;3.30;;
51122;SDS011;37162;41.724;13.346;2023-05-07T10:23:45;4.10;;;3.05;;
51122;SDS011;37162;41.724;13.346;2023-05-07T10:26:13;5.40;;;3.70;;
51122;SDS011;37162;41.724;13.346;2023-05-07T10:28:41;3.42;;;3.13;;
51122;SDS011;37162;41.724;13.346;2023-05-07T10:31:13;7.03;;;3.92;;
51122;SDS011;37162;41.724;13.346;2023-05-07T10:33:48;3.30;;;2.80;;
51122;SDS011;37162;41.724;13.346;2023-05-07T10:36:17;3.38;;;2.88;;
51122;SDS011;37162;41.724;13.346;2023-05-07T10:38:43;5.22;;;3.63;;
51122;SDS011;37162;41.724;13.346;2023-05-07T10:41:09;4.63;;;2.78;;
51122;SDS011;37162;41.724;13.346;2023-05-07T10:43:39;11.25;;;3.83;;
51122;SDS011;37162;41.724;13.346;2023-05-07T10:46:18;9.93;;;5.13;;
51122;SDS011;37162;41.724;13.346;2023-05-07T10:51:26;17.73;;;7.13;;
51122;SDS011;37162;41.724;13.346;2023-05-07T10:56:40;11.85;;;5.50;;
51122;SDS011;37162;41.724;13.346;2023-05-07T11:01:58;11.55;;;5.25;;
51122;SDS011;37162;41.724;13.346;2023-05-07T11:04:27;12.73;;;5.50;;
51122;SDS011;37162;41.724;13.346;2023-05-07T11:10:06;8.90;;;5.35;;
51122;SDS011;37162;41.724;13.346;2023-05-07T11:15:01;6.25;;;4.78;;
51122;SDS011;37162;41.724;13.346;2023-05-07T11:17:27;10.38;;;4.25;;
51122;SDS011;37162;41.724;13.346;2023-05-07T11:19:56;9.55;;;4.18;;
51122;SDS011;37162;41.724;13.346;2023-05-07T11:24:58;6.60;;;3.72;;
51122;SDS011;37162;41.724;13.346;2023-05-07T11:27:24;7.03;;;3.92;;
51122;SDS011;37162;41.724;13.346;2023-05-07T11:29:50;7.60;;;4.38;;
51122;SDS011;37162;41.724;13.346;2023-05-07T11:32:22;5.30;;;3.88;;
51122;SDS011;37162;41.724;13.346;2023-05-07T11:34:47;6.82;;;4.22;;
51122;SDS011;37162;41.724;13.346;2023-05-07T11:37:17;5.18;;;4.30;;
51122;SDS011;37162;41.724;13.346;2023-05-07T11:39:43;5.20;;;4.05;;
51122;SDS011;37162;41.724;13.346;2023-05-07T11:42:24;5.53;;;3.90;;
51122;SDS011;37162;41.724;13.346;2023-05-07T11:44:53;3.90;;;3.17;;
51122;SDS011;37162;41.724;13.346;2023-05-07T11:47:19;4.70;;;3.60;;
51122;SDS011;37162;41.724;13.346;2023-05-07T11:49:52;4.68;;;3.40;;
51122;SDS011;37162;41.724;13.346;2023-05-07T11:52:19;4.07;;;3.67;;
51122;SDS011;37162;41.724;13.346;2023-05-07T11:55:03;3.75;;;3.38;;
51122;SDS011;37162;41.724;13.346;2023-05-07T11:57:29;5.35;;;3.00;;
51122;SDS011;37162;41.724;13.346;2023-05-07T11:59:55;6.88;;;3.53;;
51122;SDS011;37162;41.724;13.346;2023-05-07T12:02:24;3.90;;;3.53;;
51122;SDS011;37162;41.724;13.346;2023-05-07T12:04:51;5.43;;;3.33;;
51122;SDS011;37162;41.724;13.346;2023-05-07T12:07:17;4.72;;;3.70;;
51122;SDS011;37162;41.724;13.346;2023-05-07T12:09:43;4.93;;;3.55;;
51122;SDS011;37162;41.724;13.346;2023-05-07T12:12:10;4.47;;;3.50;;
51122;SDS011;37162;41.724;13.346;2023-05-07T12:14:39;3.55;;;2.75;;
51122;SDS011;37162;41.724;13.346;2023-05-07T12:17:05;4.43;;;3.10;;
51122;SDS011;37162;41.724;13.346;2023-05-07T12:19:32;4.07;;;3.38;;
51122;SDS011;37162;41.724;13.346;2023-05-07T12:21:59;3.83;;;3.08;;
51122;SDS011;37162;41.724;13.346;2023-05-07T12:24:26;2.97;;;2.67;;
51122;SDS011;37162;41.724;13.346;2023-05-07T12:26:51;4.65;;;3.60;;
51122;SDS011;37162;41.724;13.346;2023-05-07T12:29:20;4.65;;;3.40;;
51122;SDS011;37162;41.724;13.346;2023-05-07T12:31:47;3.72;;;3.05;;
51122;SDS011;37162;41.724;13.346;2023-05-07T12:34:14;3.45;;;3.13;;
51122;SDS011;37162;41.724;13.346;2023-05-07T12:36:40;3.33;;;3.03;;
51122;SDS011;37162;41.724;13.346;2023-05-07T12:39:06;5.30;;;2.97;;
51122;SDS011;37162;41.724;13.346;2023-05-07T12:41:55;3.10;;;2.80;;
51122;SDS011;37162;41.724;13.346;2023-05-07T12:46:55;4.05;;;2.58;;
51122;SDS011;37162;41.724;13.346;2023-05-07T12:49:20;3.97;;;2.90;;
51122;SDS011;37162;41.724;13.346;2023-05-07T12:51:46;6.03;;;2.63;;
51122;SDS011;37162;41.724;13.346;2023-05-07T12:54:13;3.40;;;3.10;;
51122;SDS011;37162;41.724;13.346;2023-05-07T12:56:39;3.53;;;2.70;;
51122;SDS011;37162;41.724;13.346;2023-05-07T12:59:05;2.70;;;2.50;;
51122;SDS011;37162;41.724;13.346;2023-05-07T13:01:31;5.55;;;2.78;;
51122;SDS011;37162;41.724;13.346;2023-05-07T13:04:05;4.35;;;2.65;;
51122;SDS011;37162;41.724;13.346;2023-05-07T13:06:30;4.50;;;3.37;;
51122;SDS011;37162;41.724;13.346;2023-05-07T13:08:56;2.67;;;2.45;;
51122;SDS011;37162;41.724;13.346;2023-05-07T13:11:22;3.33;;;2.50;;
51122;SDS011;37162;41.724;13.346;2023-05-07T13:13:48;2.75;;;2.55;;
51122;SDS011;37162;41.724;13.346;2023-05-07T13:16:13;2.50;;;2.30;;
51122;SDS011;37162;41.724;13.346;2023-05-07T13:18:39;3.10;;;2.53;;
51122;SDS011;37162;41.724;13.346;2023-05-07T13:21:05;2.78;;;2.53;;
51122;SDS011;37162;41.724;13.346;2023-05-07T13:23:31;4.28;;;2.55;;
51122;SDS011;37162;41.724;13.346;2023-05-07T13:25:56;8.80;;;2.90;;
51122;SDS011;37162;41.724;13.346;2023-05-07T13:28:22;3.30;;;2.72;;
51122;SDS011;37162;41.724;13.346;2023-05-07T13:30:49;2.33;;;2.13;;
51122;SDS011;37162;41.724;13.346;2023-05-07T13:33:16;2.72;;;2.50;;
51122;SDS011;37162;41.724;13.346;2023-05-07T13:35:42;2.90;;;2.33;;
51122;SDS011;37162;41.724;13.346;2023-05-07T13:38:08;2.40;;;2.20;;
51122;SDS011;37162;41.724;13.346;2023-05-07T13:40:33;3.33;;;2.58;;
51122;SDS011;37162;41.724;13.346;2023-05-07T13:42:59;2.75;;;2.42;;
51122;SDS011;37162;41.724;13.346;2023-05-07T13:45:27;8.50;;;2.55;;
51122;SDS011;37162;41.724;13.346;2023-05-07T13:47:54;7.03;;;3.47;;
51122;SDS011;37162;41.724;13.346;2023-05-07T13:50:19;21.10;;;3.75;;
51122;SDS011;37162;41.724;13.346;2023-05-07T13:52:45;5.28;;;2.67;;
51122;SDS011;37162;41.724;13.346;2023-05-07T13:55:16;8.27;;;3.67;;
51122;SDS011;37162;41.724;13.346;2023-05-07T13:57:45;12.30;;;2.97;;
51122;SDS011;37162;41.724;13.346;2023-05-07T14:00:12;22.23;;;2.95;;
51122;SDS011;37162;41.724;13.346;2023-05-07T14:02:40;8.00;;;3.20;;
51122;SDS011;37162;41.724;13.346;2023-05-07T14:05:05;71.32;;;4.53;;
51122;SDS011;37162;41.724;13.346;2023-05-07T14:07:31;8.10;;;2.80;;
51122;SDS011;37162;41.724;13.346;2023-05-07T14:09:57;6.68;;;2.72;;
51122;SDS011;37162;41.724;13.346;2023-05-07T14:12:23;5.35;;;2.50;;
51122;SDS011;37162;41.724;13.346;2023-05-07T14:14:48;7.90;;;3.20;;
51122;SDS011;37162;41.724;13.346;2023-05-07T14:17:15;7.32;;;3.45;;
51122;SDS011;37162;41.724;13.346;2023-05-07T14:19:42;4.75;;;2.85;;
51122;SDS011;37162;41.724;13.346;2023-05-07T14:22:08;3.55;;;2.97;;
51122;SDS011;37162;41.724;13.346;2023-05-07T14:24:33;7.15;;;2.50;;
51122;SDS011;37162;41.724;13.346;2023-05-07T14:26:59;5.47;;;2.72;;
51122;SDS011;37162;41.724;13.346;2023-05-07T14:29:25;6.15;;;2.72;;
51122;SDS011;37162;41.724;13.346;2023-05-07T14:31:50;3.90;;;2.83;;
51122;SDS011;37162;41.724;13.346;2023-05-07T14:34:16;4.00;;;2.50;;
51122;SDS011;37162;41.724;13.346;2023-05-07T14:36:41;7.72;;;2.80;;
51122;SDS011;37162;41.724;13.346;2023-05-07T14:39:06;3.90;;;2.42;;
51122;SDS011;37162;41.724;13.346;2023-05-07T14:41:32;3.10;;;2.40;;
51122;SDS011;37162;41.724;13.346;2023-05-07T14:43:58;5.22;;;2.45;;
51122;SDS011;37162;41.724;13.346;2023-05-07T14:46:24;3.88;;;2.40;;